sensor_id;sensor_type;location;lat;lon;timestamp;P1;durP1;ratioP1;P2;durP2;ratioP2
15677;SDS011;7939;50.814;6.368;2023-04-24T00:02:20;2.90;;;1.60;;
15677;SDS011;7939;50.814;6.368;2023-04-24T00:04:47;1.58;;;1.48;;
15677;SDS011;7939;50.814;6.368;2023-04-24T00:07:14;1.63;;;1.52;;
15677;SDS011;7939;50.814;6.368;2023-04-24T00:09:41;1.58;;;1.48;;
15677;SDS011;7939;50.814;6.368;2023-04-24T00:12:08;1.60;;;1.50;;
15677;SDS011;7939;50.814;6.368;2023-04-24T00:14:35;1.85;;;1.52;;
15677;SDS011;7939;50.814;6.368;2023-04-24T00:17:03;1.67;;;1.33;;
15677;SDS011;7939;50.814;6.368;2023-04-24T00:19:30;1.70;;;1.60;;
15677;SDS011;7939;50.814;6.368;2023-04-24T00:21:56;2.80;;;1.55;;
15677;SDS011;7939;50.814;6.368;2023-04-24T00:24:23;3.55;;;1.92;;
15677;SDS011;7939;50.814;6.368;2023-04-24T00:26:49;2.90;;;2.10;;
15677;SDS011;7939;50.814;6.368;2023-04-24T00:29:16;1.50;;;1.40;;
15677;SDS011;7939;50.814;6.368;2023-04-24T00:31:42;2.38;;;1.40;;
15677;SDS011;7939;50.814;6.368;2023-04-24T00:34:10;2.17;;;1.60;;
15677;SDS011;7939;50.814;6.368;2023-04-24T00:36:37;1.90;;;1.60;;
15677;SDS011;7939;50.814;6.368;2023-04-24T00:39:04;2.25;;;2.05;;
15677;SDS011;7939;50.814;6.368;2023-04-24T00:41:31;2.67;;;2.38;;
15677;SDS011;7939;50.814;6.368;2023-04-24T00:43:57;3.80;;;3.40;;
15677;SDS011;7939;50.814;6.368;2023-04-24T00:46:24;3.58;;;3.20;;
15677;SDS011;7939;50.814;6.368;2023-04-24T00:48:51;3.38;;;2.72;;
15677;SDS011;7939;50.814;6.368;2023-04-24T00:51:19;3.17;;;2.83;;
15677;SDS011;7939;50.814;6.368;2023-04-24T00:53:46;3.72;;;2.65;;
15677;SDS011;7939;50.814;6.368;2023-04-24T00:56:12;6.05;;;3.00;;
15677;SDS011;7939;50.814;6.368;2023-04-24T00:58:40;3.95;;;3.28;;
15677;SDS011;7939;50.814;6.368;2023-04-24T01:01:06;3.88;;;3.40;;
15677;SDS011;7939;50.814;6.368;2023-04-24T01:03:33;4.95;;;3.42;;
15677;SDS011;7939;50.814;6.368;2023-04-24T01:06:02;3.97;;;3.53;;
15677;SDS011;7939;50.814;6.368;2023-04-24T01:08:31;5.28;;;3.83;;
15677;SDS011;7939;50.814;6.368;2023-04-24T01:10:58;3.63;;;3.33;;
15677;SDS011;7939;50.814;6.368;2023-04-24T01:13:26;4.30;;;3.90;;
15677;SDS011;7939;50.814;6.368;2023-04-24T01:15:53;8.20;;;4.43;;
15677;SDS011;7939;50.814;6.368;2023-04-24T01:18:20;7.72;;;4.80;;
15677;SDS011;7939;50.814;6.368;2023-04-24T01:20:47;5.00;;;4.15;;
15677;SDS011;7939;50.814;6.368;2023-04-24T01:23:18;5.45;;;4.43;;
15677;SDS011;7939;50.814;6.368;2023-04-24T01:25:45;5.88;;;5.03;;
15677;SDS011;7939;50.814;6.368;2023-04-24T01:28:12;6.68;;;4.47;;
15677;SDS011;7939;50.814;6.368;2023-04-24T01:30:40;6.65;;;5.47;;
15677;SDS011;7939;50.814;6.368;2023-04-24T01:33:06;5.03;;;4.35;;
15677;SDS011;7939;50.814;6.368;2023-04-24T01:35:33;8.23;;;5.25;;
15677;SDS011;7939;50.814;6.368;2023-04-24T01:38:01;6.10;;;4.70;;
15677;SDS011;7939;50.814;6.368;2023-04-24T01:40:29;5.75;;;4.65;;
15677;SDS011;7939;50.814;6.368;2023-04-24T01:42:57;7.93;;;5.15;;
15677;SDS011;7939;50.814;6.368;2023-04-24T01:45:24;7.13;;;4.78;;
15677;SDS011;7939;50.814;6.368;2023-04-24T01:47:50;6.20;;;4.90;;
15677;SDS011;7939;50.814;6.368;2023-04-24T01:50:17;7.53;;;4.82;;
15677;SDS011;7939;50.814;6.368;2023-04-24T01:52:43;6.22;;;4.82;;
15677;SDS011;7939;50.814;6.368;2023-04-24T01:55:10;4.80;;;4.28;;
15677;SDS011;7939;50.814;6.368;2023-04-24T01:57:38;6.82;;;5.10;;
15677;SDS011;7939;50.814;6.368;2023-04-24T02:00:06;6.25;;;4.80;;
15677;SDS011;7939;50.814;6.368;2023-04-24T02:02:33;7.78;;;4.32;;
15677;SDS011;7939;50.814;6.368;2023-04-24T02:05:00;5.78;;;4.60;;
15677;SDS011;7939;50.814;6.368;2023-04-24T02:07:26;7.60;;;4.75;;
15677;SDS011;7939;50.814;6.368;2023-04-24T02:09:53;6.88;;;4.93;;
15677;SDS011;7939;50.814;6.368;2023-04-24T02:12:20;8.50;;;5.93;;
15677;SDS011;7939;50.814;6.368;2023-04-24T02:14:48;7.70;;;5.00;;
15677;SDS011;7939;50.814;6.368;2023-04-24T02:17:15;12.05;;;5.38;;
15677;SDS011;7939;50.814;6.368;2023-04-24T02:19:42;5.78;;;5.10;;
15677;SDS011;7939;50.814;6.368;2023-04-24T02:22:08;7.88;;;5.32;;
15677;SDS011;7939;50.814;6.368;2023-04-24T02:24:35;12.43;;;6.53;;
15677;SDS011;7939;50.814;6.368;2023-04-24T02:27:02;8.40;;;6.13;;
15677;SDS011;7939;50.814;6.368;2023-04-24T02:29:29;7.60;;;5.63;;
15677;SDS011;7939;50.814;6.368;2023-04-24T02:31:57;7.85;;;5.93;;
15677;SDS011;7939;50.814;6.368;2023-04-24T02:34:24;7.20;;;5.75;;
15677;SDS011;7939;50.814;6.368;2023-04-24T02:36:50;8.20;;;5.85;;
15677;SDS011;7939;50.814;6.368;2023-04-24T02:39:18;10.10;;;6.10;;
15677;SDS011;7939;50.814;6.368;2023-04-24T02:41:45;6.95;;;6.18;;
15677;SDS011;7939;50.814;6.368;2023-04-24T02:44:12;8.52;;;5.90;;
15677;SDS011;7939;50.814;6.368;2023-04-24T02:46:38;8.30;;;6.15;;
15677;SDS011;7939;50.814;6.368;2023-04-24T02:49:07;8.35;;;6.10;;
15677;SDS011;7939;50.814;6.368;2023-04-24T02:51:34;9.90;;;5.90;;
15677;SDS011;7939;50.814;6.368;2023-04-24T02:54:03;7.97;;;6.03;;
15677;SDS011;7939;50.814;6.368;2023-04-24T02:56:29;8.77;;;6.28;;
15677;SDS011;7939;50.814;6.368;2023-04-24T02:58:56;7.95;;;6.10;;
15677;SDS011;7939;50.814;6.368;2023-04-24T03:01:23;7.38;;;5.90;;
15677;SDS011;7939;50.814;6.368;2023-04-24T03:03:50;7.13;;;5.38;;
15677;SDS011;7939;50.814;6.368;2023-04-24T03:06:18;8.18;;;6.20;;
15677;SDS011;7939;50.814;6.368;2023-04-24T03:08:46;8.00;;;5.55;;
15677;SDS011;7939;50.814;6.368;2023-04-24T03:11:13;6.88;;;4.75;;
15677;SDS011;7939;50.814;6.368;2023-04-24T03:13:40;5.80;;;5.15;;
15677;SDS011;7939;50.814;6.368;2023-04-24T03:16:06;7.50;;;5.20;;
15677;SDS011;7939;50.814;6.368;2023-04-24T03:18:32;6.18;;;4.93;;
15677;SDS011;7939;50.814;6.368;2023-04-24T03:20:59;6.60;;;5.03;;
15677;SDS011;7939;50.814;6.368;2023-04-24T03:23:28;7.07;;;5.07;;
15677;SDS011;7939;50.814;6.368;2023-04-24T03:25:55;8.85;;;5.65;;
15677;SDS011;7939;50.814;6.368;2023-04-24T03:28:21;7.80;;;5.32;;
15677;SDS011;7939;50.814;6.368;2023-04-24T03:30:48;5.90;;;4.90;;
15677;SDS011;7939;50.814;6.368;2023-04-24T03:33:14;8.02;;;5.30;;
15677;SDS011;7939;50.814;6.368;2023-04-24T03:35:41;7.78;;;5.68;;
15677;SDS011;7939;50.814;6.368;2023-04-24T03:38:08;11.27;;;5.78;;
15677;SDS011;7939;50.814;6.368;2023-04-24T03:40:35;8.95;;;6.18;;
15677;SDS011;7939;50.814;6.368;2023-04-24T03:43:02;7.82;;;5.20;;
15677;SDS011;7939;50.814;6.368;2023-04-24T03:45:28;7.47;;;5.40;;
15677;SDS011;7939;50.814;6.368;2023-04-24T03:47:55;9.77;;;5.95;;
15677;SDS011;7939;50.814;6.368;2023-04-24T03:50:22;7.00;;;5.18;;
15677;SDS011;7939;50.814;6.368;2023-04-24T03:52:48;5.85;;;4.93;;
15677;SDS011;7939;50.814;6.368;2023-04-24T03:55:15;10.40;;;6.10;;
15677;SDS011;7939;50.814;6.368;2023-04-24T03:57:43;7.40;;;5.05;;
15677;SDS011;7939;50.814;6.368;2023-04-24T04:00:10;7.38;;;4.97;;
15677;SDS011;7939;50.814;6.368;2023-04-24T04:02:37;7.55;;;5.75;;
15677;SDS011;7939;50.814;6.368;2023-04-24T04:05:04;6.78;;;5.05;;
15677;SDS011;7939;50.814;6.368;2023-04-24T04:07:31;6.90;;;5.43;;
15677;SDS011;7939;50.814;6.368;2023-04-24T04:09:58;7.72;;;5.30;;
15677;SDS011;7939;50.814;6.368;2023-04-24T04:12:24;8.55;;;5.45;;
15677;SDS011;7939;50.814;6.368;2023-04-24T04:14:52;9.00;;;5.72;;
15677;SDS011;7939;50.814;6.368;2023-04-24T04:17:19;7.10;;;5.30;;
15677;SDS011;7939;50.814;6.368;2023-04-24T04:19:45;5.75;;;4.95;;
15677;SDS011;7939;50.814;6.368;2023-04-24T04:22:12;7.72;;;5.25;;
15677;SDS011;7939;50.814;6.368;2023-04-24T04:24:39;6.95;;;5.18;;
15677;SDS011;7939;50.814;6.368;2023-04-24T04:27:05;7.40;;;4.95;;
15677;SDS011;7939;50.814;6.368;2023-04-24T04:29:33;6.05;;;5.50;;
15677;SDS011;7939;50.814;6.368;2023-04-24T04:32:01;6.25;;;5.20;;
15677;SDS011;7939;50.814;6.368;2023-04-24T04:34:28;6.78;;;5.72;;
15677;SDS011;7939;50.814;6.368;2023-04-24T04:36:54;6.65;;;5.18;;
15677;SDS011;7939;50.814;6.368;2023-04-24T04:39:24;5.68;;;5.07;;
15677;SDS011;7939;50.814;6.368;2023-04-24T04:41:51;9.00;;;6.53;;
15677;SDS011;7939;50.814;6.368;2023-04-24T04:44:18;8.40;;;5.90;;
15677;SDS011;7939;50.814;6.368;2023-04-24T04:46:44;8.95;;;5.60;;
15677;SDS011;7939;50.814;6.368;2023-04-24T04:49:12;6.95;;;5.80;;
15677;SDS011;7939;50.814;6.368;2023-04-24T04:51:41;9.50;;;5.55;;
15677;SDS011;7939;50.814;6.368;2023-04-24T04:54:08;8.32;;;5.53;;
15677;SDS011;7939;50.814;6.368;2023-04-24T04:56:35;9.48;;;5.47;;
15677;SDS011;7939;50.814;6.368;2023-04-24T04:59:01;8.30;;;5.70;;
15677;SDS011;7939;50.814;6.368;2023-04-24T05:01:28;7.65;;;5.95;;
15677;SDS011;7939;50.814;6.368;2023-04-24T05:03:54;7.38;;;5.55;;
15677;SDS011;7939;50.814;6.368;2023-04-24T05:06:22;7.22;;;5.85;;
15677;SDS011;7939;50.814;6.368;2023-04-24T05:08:49;6.43;;;5.80;;
15677;SDS011;7939;50.814;6.368;2023-04-24T05:11:16;10.07;;;5.78;;
15677;SDS011;7939;50.814;6.368;2023-04-24T05:13:42;9.07;;;5.38;;
15677;SDS011;7939;50.814;6.368;2023-04-24T05:16:09;7.32;;;5.10;;
15677;SDS011;7939;50.814;6.368;2023-04-24T05:18:36;6.05;;;4.78;;
15677;SDS011;7939;50.814;6.368;2023-04-24T05:21:02;8.30;;;5.50;;
15677;SDS011;7939;50.814;6.368;2023-04-24T05:23:30;8.23;;;5.70;;
15677;SDS011;7939;50.814;6.368;2023-04-24T05:25:56;6.85;;;4.93;;
15677;SDS011;7939;50.814;6.368;2023-04-24T05:28:23;6.07;;;4.75;;
15677;SDS011;7939;50.814;6.368;2023-04-24T05:30:53;6.35;;;4.95;;
15677;SDS011;7939;50.814;6.368;2023-04-24T05:33:20;6.22;;;4.20;;
15677;SDS011;7939;50.814;6.368;2023-04-24T05:35:47;4.90;;;4.28;;
15677;SDS011;7939;50.814;6.368;2023-04-24T05:38:14;5.10;;;4.28;;
15677;SDS011;7939;50.814;6.368;2023-04-24T05:40:44;5.13;;;4.05;;
15677;SDS011;7939;50.814;6.368;2023-04-24T05:43:10;6.45;;;3.97;;
15677;SDS011;7939;50.814;6.368;2023-04-24T05:45:37;6.07;;;4.25;;
15677;SDS011;7939;50.814;6.368;2023-04-24T05:48:04;4.40;;;3.90;;
15677;SDS011;7939;50.814;6.368;2023-04-24T05:50:30;5.10;;;3.97;;
15677;SDS011;7939;50.814;6.368;2023-04-24T05:52:57;5.38;;;3.55;;
15677;SDS011;7939;50.814;6.368;2023-04-24T05:55:24;3.92;;;3.53;;
15677;SDS011;7939;50.814;6.368;2023-04-24T05:57:52;6.10;;;3.90;;
15677;SDS011;7939;50.814;6.368;2023-04-24T06:00:18;3.55;;;3.25;;
15677;SDS011;7939;50.814;6.368;2023-04-24T06:02:46;5.80;;;3.40;;
15677;SDS011;7939;50.814;6.368;2023-04-24T06:05:12;5.00;;;4.07;;
15677;SDS011;7939;50.814;6.368;2023-04-24T06:07:39;4.30;;;3.33;;
15677;SDS011;7939;50.814;6.368;2023-04-24T06:10:07;3.10;;;2.80;;
15677;SDS011;7939;50.814;6.368;2023-04-24T06:12:34;5.13;;;3.45;;
15677;SDS011;7939;50.814;6.368;2023-04-24T06:15:03;4.65;;;3.17;;
15677;SDS011;7939;50.814;6.368;2023-04-24T06:17:30;6.00;;;3.08;;
15677;SDS011;7939;50.814;6.368;2023-04-24T06:19:57;4.57;;;3.35;;
15677;SDS011;7939;50.814;6.368;2023-04-24T06:22:23;4.38;;;3.45;;
15677;SDS011;7939;50.814;6.368;2023-04-24T06:24:50;5.28;;;4.07;;
15677;SDS011;7939;50.814;6.368;2023-04-24T06:27:17;3.85;;;3.17;;
15677;SDS011;7939;50.814;6.368;2023-04-24T06:29:43;3.75;;;3.42;;
15677;SDS011;7939;50.814;6.368;2023-04-24T06:32:11;3.58;;;3.13;;
15677;SDS011;7939;50.814;6.368;2023-04-24T06:34:37;4.53;;;3.10;;
15677;SDS011;7939;50.814;6.368;2023-04-24T06:37:04;3.95;;;3.08;;
15677;SDS011;7939;50.814;6.368;2023-04-24T06:39:31;4.55;;;2.78;;
15677;SDS011;7939;50.814;6.368;2023-04-24T06:41:58;3.75;;;2.90;;
15677;SDS011;7939;50.814;6.368;2023-04-24T06:44:25;4.13;;;3.00;;
15677;SDS011;7939;50.814;6.368;2023-04-24T06:46:52;3.70;;;3.13;;
15677;SDS011;7939;50.814;6.368;2023-04-24T06:49:20;3.03;;;2.50;;
15677;SDS011;7939;50.814;6.368;2023-04-24T06:51:46;2.70;;;2.50;;
15677;SDS011;7939;50.814;6.368;2023-04-24T06:54:13;3.63;;;2.90;;
15677;SDS011;7939;50.814;6.368;2023-04-24T06:56:39;3.80;;;3.20;;
15677;SDS011;7939;50.814;6.368;2023-04-24T06:59:06;4.25;;;2.45;;
15677;SDS011;7939;50.814;6.368;2023-04-24T07:01:33;2.95;;;2.65;;
15677;SDS011;7939;50.814;6.368;2023-04-24T07:04:00;3.20;;;2.90;;
15677;SDS011;7939;50.814;6.368;2023-04-24T07:06:28;2.83;;;2.63;;
15677;SDS011;7939;50.814;6.368;2023-04-24T07:08:55;2.70;;;2.50;;
15677;SDS011;7939;50.814;6.368;2023-04-24T07:11:22;4.75;;;2.97;;
15677;SDS011;7939;50.814;6.368;2023-04-24T07:13:48;3.70;;;2.38;;
15677;SDS011;7939;50.814;6.368;2023-04-24T07:16:15;3.42;;;2.10;;
15677;SDS011;7939;50.814;6.368;2023-04-24T07:18:42;2.35;;;2.15;;
15677;SDS011;7939;50.814;6.368;2023-04-24T07:21:08;1.90;;;1.80;;
15677;SDS011;7939;50.814;6.368;2023-04-24T07:23:37;1.85;;;1.60;;
15677;SDS011;7939;50.814;6.368;2023-04-24T07:26:03;1.75;;;1.65;;
15677;SDS011;7939;50.814;6.368;2023-04-24T07:28:30;3.83;;;2.63;;
15677;SDS011;7939;50.814;6.368;2023-04-24T07:30:57;2.22;;;2.03;;
15677;SDS011;7939;50.814;6.368;2023-04-24T07:33:24;3.05;;;2.40;;
15677;SDS011;7939;50.814;6.368;2023-04-24T07:35:51;2.65;;;2.33;;
15677;SDS011;7939;50.814;6.368;2023-04-24T07:38:18;2.40;;;2.20;;
15677;SDS011;7939;50.814;6.368;2023-04-24T07:40:48;3.13;;;2.70;;
15677;SDS011;7939;50.814;6.368;2023-04-24T07:43:15;2.80;;;2.50;;
15677;SDS011;7939;50.814;6.368;2023-04-24T07:45:41;3.65;;;2.42;;
15677;SDS011;7939;50.814;6.368;2023-04-24T07:48:08;3.53;;;2.88;;
15677;SDS011;7939;50.814;6.368;2023-04-24T07:50:35;3.05;;;2.72;;
15677;SDS011;7939;50.814;6.368;2023-04-24T07:53:02;3.47;;;2.67;;
15677;SDS011;7939;50.814;6.368;2023-04-24T07:55:28;3.78;;;2.88;;
15677;SDS011;7939;50.814;6.368;2023-04-24T07:57:56;2.65;;;2.45;;
15677;SDS011;7939;50.814;6.368;2023-04-24T08:00:23;4.88;;;3.22;;
15677;SDS011;7939;50.814;6.368;2023-04-24T08:02:49;6.28;;;3.15;;
15677;SDS011;7939;50.814;6.368;2023-04-24T08:05:16;4.40;;;2.97;;
15677;SDS011;7939;50.814;6.368;2023-04-24T08:07:43;3.40;;;2.97;;
15677;SDS011;7939;50.814;6.368;2023-04-24T08:10:13;4.90;;;3.33;;
15677;SDS011;7939;50.814;6.368;2023-04-24T08:12:41;4.70;;;3.58;;
15677;SDS011;7939;50.814;6.368;2023-04-24T08:15:09;4.55;;;3.67;;
15677;SDS011;7939;50.814;6.368;2023-04-24T08:17:36;5.60;;;3.70;;
15677;SDS011;7939;50.814;6.368;2023-04-24T08:20:03;5.28;;;3.72;;
15677;SDS011;7939;50.814;6.368;2023-04-24T08:22:30;5.28;;;3.75;;
15677;SDS011;7939;50.814;6.368;2023-04-24T08:24:57;6.47;;;3.40;;
15677;SDS011;7939;50.814;6.368;2023-04-24T08:27:25;4.32;;;3.92;;
15677;SDS011;7939;50.814;6.368;2023-04-24T08:29:52;4.70;;;4.20;;
15677;SDS011;7939;50.814;6.368;2023-04-24T08:32:21;5.35;;;3.92;;
15677;SDS011;7939;50.814;6.368;2023-04-24T08:34:48;5.93;;;4.40;;
15677;SDS011;7939;50.814;6.368;2023-04-24T08:37:14;7.03;;;3.83;;
15677;SDS011;7939;50.814;6.368;2023-04-24T08:39:41;5.60;;;4.13;;
15677;SDS011;7939;50.814;6.368;2023-04-24T08:42:07;5.63;;;4.63;;
15677;SDS011;7939;50.814;6.368;2023-04-24T08:44:35;6.30;;;4.32;;
15677;SDS011;7939;50.814;6.368;2023-04-24T08:47:02;6.43;;;4.53;;
15677;SDS011;7939;50.814;6.368;2023-04-24T08:49:30;7.32;;;4.43;;
15677;SDS011;7939;50.814;6.368;2023-04-24T08:51:57;5.70;;;4.00;;
15677;SDS011;7939;50.814;6.368;2023-04-24T08:54:25;5.43;;;3.80;;
15677;SDS011;7939;50.814;6.368;2023-04-24T08:56:53;4.10;;;3.15;;
15677;SDS011;7939;50.814;6.368;2023-04-24T08:59:24;4.82;;;4.15;;
15677;SDS011;7939;50.814;6.368;2023-04-24T09:01:51;5.55;;;3.70;;
15677;SDS011;7939;50.814;6.368;2023-04-24T09:04:18;4.80;;;3.85;;
15677;SDS011;7939;50.814;6.368;2023-04-24T09:06:48;5.57;;;3.55;;
15677;SDS011;7939;50.814;6.368;2023-04-24T09:09:15;3.92;;;3.45;;
15677;SDS011;7939;50.814;6.368;2023-04-24T09:11:42;4.60;;;3.58;;
15677;SDS011;7939;50.814;6.368;2023-04-24T09:14:09;5.53;;;3.92;;
15677;SDS011;7939;50.814;6.368;2023-04-24T09:16:36;4.50;;;3.88;;
15677;SDS011;7939;50.814;6.368;2023-04-24T09:19:03;6.07;;;3.90;;
15677;SDS011;7939;50.814;6.368;2023-04-24T09:21:31;5.88;;;4.13;;
15677;SDS011;7939;50.814;6.368;2023-04-24T09:24:00;5.55;;;3.97;;
15677;SDS011;7939;50.814;6.368;2023-04-24T09:26:29;5.95;;;4.18;;
15677;SDS011;7939;50.814;6.368;2023-04-24T09:28:58;5.93;;;4.05;;
15677;SDS011;7939;50.814;6.368;2023-04-24T09:31:26;12.23;;;4.40;;
15677;SDS011;7939;50.814;6.368;2023-04-24T09:33:55;7.78;;;4.22;;
15677;SDS011;7939;50.814;6.368;2023-04-24T09:36:28;7.05;;;4.22;;
15677;SDS011;7939;50.814;6.368;2023-04-24T09:38:59;6.72;;;3.78;;
15677;SDS011;7939;50.814;6.368;2023-04-24T09:41:27;3.17;;;2.83;;
15677;SDS011;7939;50.814;6.368;2023-04-24T09:43:55;3.55;;;3.17;;
15677;SDS011;7939;50.814;6.368;2023-04-24T09:46:29;6.03;;;3.13;;
15677;SDS011;7939;50.814;6.368;2023-04-24T09:48:56;3.80;;;3.20;;
15677;SDS011;7939;50.814;6.368;2023-04-24T09:51:32;5.22;;;3.30;;
15677;SDS011;7939;50.814;6.368;2023-04-24T09:54:02;4.47;;;3.40;;
15677;SDS011;7939;50.814;6.368;2023-04-24T09:56:32;5.32;;;4.07;;
15677;SDS011;7939;50.814;6.368;2023-04-24T09:59:03;7.03;;;4.32;;
15677;SDS011;7939;50.814;6.368;2023-04-24T10:01:31;7.05;;;4.30;;
15677;SDS011;7939;50.814;6.368;2023-04-24T10:03:58;8.02;;;4.40;;
15677;SDS011;7939;50.814;6.368;2023-04-24T10:06:29;9.05;;;5.75;;
15677;SDS011;7939;50.814;6.368;2023-04-24T10:08:57;8.85;;;5.10;;
15677;SDS011;7939;50.814;6.368;2023-04-24T10:11:26;8.43;;;6.05;;
15677;SDS011;7939;50.814;6.368;2023-04-24T10:13:53;14.88;;;6.03;;
15677;SDS011;7939;50.814;6.368;2023-04-24T10:16:23;12.38;;;6.88;;
15677;SDS011;7939;50.814;6.368;2023-04-24T10:18:52;8.10;;;6.65;;
15677;SDS011;7939;50.814;6.368;2023-04-24T10:21:18;9.90;;;6.65;;
15677;SDS011;7939;50.814;6.368;2023-04-24T10:23:45;7.88;;;6.13;;
15677;SDS011;7939;50.814;6.368;2023-04-24T10:26:12;11.43;;;6.15;;
15677;SDS011;7939;50.814;6.368;2023-04-24T10:28:44;8.73;;;6.22;;
15677;SDS011;7939;50.814;6.368;2023-04-24T10:31:11;8.60;;;5.63;;
15677;SDS011;7939;50.814;6.368;2023-04-24T10:33:38;7.97;;;5.10;;
15677;SDS011;7939;50.814;6.368;2023-04-24T10:36:07;10.20;;;5.90;;
15677;SDS011;7939;50.814;6.368;2023-04-24T10:38:35;8.15;;;4.43;;
15677;SDS011;7939;50.814;6.368;2023-04-24T10:41:07;6.70;;;4.20;;
15677;SDS011;7939;50.814;6.368;2023-04-24T10:43:34;6.97;;;4.25;;
15677;SDS011;7939;50.814;6.368;2023-04-24T10:46:03;9.73;;;4.75;;
15677;SDS011;7939;50.814;6.368;2023-04-24T10:48:31;6.32;;;4.47;;
15677;SDS011;7939;50.814;6.368;2023-04-24T10:50:58;7.82;;;4.30;;
15677;SDS011;7939;50.814;6.368;2023-04-24T10:53:27;8.02;;;5.20;;
15677;SDS011;7939;50.814;6.368;2023-04-24T10:55:57;8.68;;;5.40;;
15677;SDS011;7939;50.814;6.368;2023-04-24T10:58:26;8.00;;;5.32;;
15677;SDS011;7939;50.814;6.368;2023-04-24T11:01:03;9.90;;;5.15;;
15677;SDS011;7939;50.814;6.368;2023-04-24T11:03:33;11.85;;;7.03;;
15677;SDS011;7939;50.814;6.368;2023-04-24T11:06:01;12.57;;;7.67;;
15677;SDS011;7939;50.814;6.368;2023-04-24T11:08:30;12.15;;;6.90;;
15677;SDS011;7939;50.814;6.368;2023-04-24T11:10:59;9.35;;;5.93;;
15677;SDS011;7939;50.814;6.368;2023-04-24T11:14:00;12.60;;;6.30;;
15677;SDS011;7939;50.814;6.368;2023-04-24T11:16:35;7.05;;;5.20;;
15677;SDS011;7939;50.814;6.368;2023-04-24T11:19:08;11.30;;;6.07;;
15677;SDS011;7939;50.814;6.368;2023-04-24T11:21:43;7.93;;;5.78;;
15677;SDS011;7939;50.814;6.368;2023-04-24T11:24:26;9.88;;;5.85;;
15677;SDS011;7939;50.814;6.368;2023-04-24T11:26:57;9.60;;;5.82;;
15677;SDS011;7939;50.814;6.368;2023-04-24T11:29:43;8.25;;;5.53;;
15677;SDS011;7939;50.814;6.368;2023-04-24T11:32:16;7.82;;;5.88;;
15677;SDS011;7939;50.814;6.368;2023-04-24T11:34:45;9.63;;;5.57;;
15677;SDS011;7939;50.814;6.368;2023-04-24T11:37:14;10.85;;;6.40;;
15677;SDS011;7939;50.814;6.368;2023-04-24T11:39:41;12.57;;;6.55;;
15677;SDS011;7939;50.814;6.368;2023-04-24T11:42:08;9.35;;;5.85;;
15677;SDS011;7939;50.814;6.368;2023-04-24T11:44:35;12.40;;;5.78;;
15677;SDS011;7939;50.814;6.368;2023-04-24T11:47:04;11.25;;;6.00;;
15677;SDS011;7939;50.814;6.368;2023-04-24T11:49:33;11.95;;;6.03;;
15677;SDS011;7939;50.814;6.368;2023-04-24T11:52:03;10.10;;;5.75;;
15677;SDS011;7939;50.814;6.368;2023-04-24T11:54:31;10.00;;;6.05;;
15677;SDS011;7939;50.814;6.368;2023-04-24T11:57:06;8.75;;;6.22;;
15677;SDS011;7939;50.814;6.368;2023-04-24T11:59:36;8.57;;;5.55;;
15677;SDS011;7939;50.814;6.368;2023-04-24T12:02:03;13.77;;;6.82;;
15677;SDS011;7939;50.814;6.368;2023-04-24T12:04:40;7.47;;;4.85;;
15677;SDS011;7939;50.814;6.368;2023-04-24T12:07:07;5.97;;;4.88;;
15677;SDS011;7939;50.814;6.368;2023-04-24T12:09:41;10.00;;;5.70;;
15677;SDS011;7939;50.814;6.368;2023-04-24T12:12:08;10.18;;;5.65;;
15677;SDS011;7939;50.814;6.368;2023-04-24T12:14:41;8.20;;;5.10;;
15677;SDS011;7939;50.814;6.368;2023-04-24T12:17:09;8.15;;;4.88;;
15677;SDS011;7939;50.814;6.368;2023-04-24T12:19:36;9.18;;;5.30;;
15677;SDS011;7939;50.814;6.368;2023-04-24T12:22:04;7.70;;;5.13;;
15677;SDS011;7939;50.814;6.368;2023-04-24T12:24:32;10.18;;;5.80;;
15677;SDS011;7939;50.814;6.368;2023-04-24T12:27:00;9.05;;;5.57;;
15677;SDS011;7939;50.814;6.368;2023-04-24T12:29:27;5.90;;;4.97;;
15677;SDS011;7939;50.814;6.368;2023-04-24T12:31:59;9.70;;;5.57;;
15677;SDS011;7939;50.814;6.368;2023-04-24T12:34:28;10.20;;;5.90;;
15677;SDS011;7939;50.814;6.368;2023-04-24T12:36:56;8.60;;;5.55;;
15677;SDS011;7939;50.814;6.368;2023-04-24T12:39:24;10.38;;;6.07;;
15677;SDS011;7939;50.814;6.368;2023-04-24T12:41:54;10.57;;;5.75;;
15677;SDS011;7939;50.814;6.368;2023-04-24T12:44:29;11.00;;;5.80;;
15677;SDS011;7939;50.814;6.368;2023-04-24T12:46:57;6.60;;;4.75;;
15677;SDS011;7939;50.814;6.368;2023-04-24T12:49:23;6.82;;;4.93;;
15677;SDS011;7939;50.814;6.368;2023-04-24T12:51:50;9.13;;;5.13;;
15677;SDS011;7939;50.814;6.368;2023-04-24T12:54:18;10.18;;;5.47;;
15677;SDS011;7939;50.814;6.368;2023-04-24T12:56:46;6.85;;;5.13;;
15677;SDS011;7939;50.814;6.368;2023-04-24T12:59:12;9.85;;;5.85;;
15677;SDS011;7939;50.814;6.368;2023-04-24T13:01:40;9.40;;;5.72;;
15677;SDS011;7939;50.814;6.368;2023-04-24T13:04:07;11.35;;;5.60;;
15677;SDS011;7939;50.814;6.368;2023-04-24T13:06:33;10.90;;;6.20;;
15677;SDS011;7939;50.814;6.368;2023-04-24T13:09:00;11.95;;;6.05;;
15677;SDS011;7939;50.814;6.368;2023-04-24T13:11:26;9.38;;;5.53;;
15677;SDS011;7939;50.814;6.368;2023-04-24T13:13:54;5.47;;;4.35;;
15677;SDS011;7939;50.814;6.368;2023-04-24T13:16:21;10.60;;;5.32;;
15677;SDS011;7939;50.814;6.368;2023-04-24T13:18:48;11.00;;;5.80;;
15677;SDS011;7939;50.814;6.368;2023-04-24T13:21:14;10.90;;;6.10;;
15677;SDS011;7939;50.814;6.368;2023-04-24T13:23:41;9.90;;;5.53;;
15677;SDS011;7939;50.814;6.368;2023-04-24T13:26:08;7.95;;;5.05;;
15677;SDS011;7939;50.814;6.368;2023-04-24T13:28:35;8.90;;;5.20;;
15677;SDS011;7939;50.814;6.368;2023-04-24T13:31:04;6.78;;;4.22;;
15677;SDS011;7939;50.814;6.368;2023-04-24T13:33:31;9.15;;;4.53;;
15677;SDS011;7939;50.814;6.368;2023-04-24T13:35:57;8.73;;;5.38;;
15677;SDS011;7939;50.814;6.368;2023-04-24T13:38:24;8.45;;;4.63;;
15677;SDS011;7939;50.814;6.368;2023-04-24T13:40:51;6.35;;;4.13;;
15677;SDS011;7939;50.814;6.368;2023-04-24T13:43:17;7.57;;;4.90;;
15677;SDS011;7939;50.814;6.368;2023-04-24T13:45:44;4.95;;;4.22;;
15677;SDS011;7939;50.814;6.368;2023-04-24T13:48:12;10.25;;;4.88;;
15677;SDS011;7939;50.814;6.368;2023-04-24T13:50:40;8.30;;;4.70;;
15677;SDS011;7939;50.814;6.368;2023-04-24T13:53:07;6.53;;;4.40;;
15677;SDS011;7939;50.814;6.368;2023-04-24T13:55:33;7.18;;;4.68;;
15677;SDS011;7939;50.814;6.368;2023-04-24T13:58:00;6.82;;;4.60;;
15677;SDS011;7939;50.814;6.368;2023-04-24T14:00:27;7.70;;;5.05;;
15677;SDS011;7939;50.814;6.368;2023-04-24T14:02:53;8.70;;;4.55;;
15677;SDS011;7939;50.814;6.368;2023-04-24T14:05:22;9.10;;;5.10;;
15677;SDS011;7939;50.814;6.368;2023-04-24T14:07:48;5.00;;;3.75;;
15677;SDS011;7939;50.814;6.368;2023-04-24T14:10:15;7.13;;;4.72;;
15677;SDS011;7939;50.814;6.368;2023-04-24T14:12:42;6.05;;;4.38;;
15677;SDS011;7939;50.814;6.368;2023-04-24T14:15:09;7.97;;;4.50;;
15677;SDS011;7939;50.814;6.368;2023-04-24T14:17:38;11.05;;;4.28;;
15677;SDS011;7939;50.814;6.368;2023-04-24T14:20:05;7.38;;;4.55;;
15677;SDS011;7939;50.814;6.368;2023-04-24T14:22:35;7.03;;;3.97;;
15677;SDS011;7939;50.814;6.368;2023-04-24T14:25:02;6.60;;;4.80;;
15677;SDS011;7939;50.814;6.368;2023-04-24T14:27:28;10.27;;;4.78;;
15677;SDS011;7939;50.814;6.368;2023-04-24T14:29:55;6.80;;;4.38;;
15677;SDS011;7939;50.814;6.368;2023-04-24T14:32:22;9.07;;;5.05;;
15677;SDS011;7939;50.814;6.368;2023-04-24T14:34:48;9.25;;;4.68;;
15677;SDS011;7939;50.814;6.368;2023-04-24T14:37:15;8.23;;;4.60;;
15677;SDS011;7939;50.814;6.368;2023-04-24T14:39:43;6.72;;;3.88;;
15677;SDS011;7939;50.814;6.368;2023-04-24T14:42:10;9.27;;;4.82;;
15677;SDS011;7939;50.814;6.368;2023-04-24T14:44:37;9.00;;;5.30;;
15677;SDS011;7939;50.814;6.368;2023-04-24T14:47:04;7.05;;;4.38;;
15677;SDS011;7939;50.814;6.368;2023-04-24T14:49:31;6.47;;;4.15;;
15677;SDS011;7939;50.814;6.368;2023-04-24T14:51:57;7.50;;;4.80;;
15677;SDS011;7939;50.814;6.368;2023-04-24T14:54:24;7.97;;;4.88;;
15677;SDS011;7939;50.814;6.368;2023-04-24T14:56:52;7.45;;;4.63;;
15677;SDS011;7939;50.814;6.368;2023-04-24T14:59:21;8.38;;;5.00;;
15677;SDS011;7939;50.814;6.368;2023-04-24T15:01:48;7.50;;;4.20;;
15677;SDS011;7939;50.814;6.368;2023-04-24T15:04:16;5.57;;;4.15;;